Terminal Aerodrome Forecast
Issued by NWS

Home | Current Version | Previous Version | Text Only | Print | Product List | Glossary On
Versions: 1 2 3 4 5 6 7 8 9 10 11 12 13 14 15
603
FTUS46 KSEW 210154 AAA
TAFPAE
TAF AMD
KPAE 210154Z 2102/2124 VRB05KT P6SM SCT015 OVC040
      TEMPO 2102/2104 5SM -SHRA BR BKN015 OVC040
     FM210400 18008KT P6SM SCT035 BKN080 OVC120
     FM211100 14008KT P6SM -RA BKN040 OVC080
     FM211500 15010KT 6SM -RA BKN020 OVC040
      TEMPO 2118/2122 2SM RA BR OVC015=

USA.gov is the U.S. government's official web portal to all federal, state and local government web resources and services.